sensor_id;sensor_type;location;lat;lon;timestamp;pressure;altitude;pressure_sealevel;temperature;humidity
10060;BME280;5069;49.306;8.636;2023-08-20T00:01:12;100744.66;;;25.91;100.00
10060;BME280;5069;49.306;8.636;2023-08-20T00:04:14;100742.63;;;25.84;100.00
10060;BME280;5069;49.306;8.636;2023-08-20T00:07:16;100730.13;;;25.73;100.00
10060;BME280;5069;49.306;8.636;2023-08-20T00:10:19;100742.91;;;25.71;100.00
10060;BME280;5069;49.306;8.636;2023-08-20T00:13:21;100735.22;;;25.57;100.00
10060;BME280;5069;49.306;8.636;2023-08-20T00:16:22;100734.84;;;25.41;100.00
10060;BME280;5069;49.306;8.636;2023-08-20T00:19:24;100743.66;;;25.33;100.00
10060;BME280;5069;49.306;8.636;2023-08-20T00:22:26;100746.72;;;25.19;100.00
10060;BME280;5069;49.306;8.636;2023-08-20T00:25:28;100748.25;;;25.12;100.00
10060;BME280;5069;49.306;8.636;2023-08-20T00:28:30;100746.69;;;25.09;100.00
10060;BME280;5069;49.306;8.636;2023-08-20T00:31:31;100750.09;;;25.12;100.00
10060;BME280;5069;49.306;8.636;2023-08-20T00:34:33;100750.81;;;25.14;100.00
10060;BME280;5069;49.306;8.636;2023-08-20T00:37:34;100750.66;;;25.05;100.00
10060;BME280;5069;49.306;8.636;2023-08-20T00:40:37;100752.63;;;25.03;100.00
10060;BME280;5069;49.306;8.636;2023-08-20T00:43:38;100754.03;;;25.07;100.00
10060;BME280;5069;49.306;8.636;2023-08-20T00:46:40;100753.06;;;25.08;100.00
10060;BME280;5069;49.306;8.636;2023-08-20T00:49:41;100744.78;;;25.00;100.00
10060;BME280;5069;49.306;8.636;2023-08-20T00:52:43;100763.22;;;24.95;100.00
10060;BME280;5069;49.306;8.636;2023-08-20T00:55:47;100768.47;;;24.97;100.00
10060;BME280;5069;49.306;8.636;2023-08-20T00:58:49;100766.19;;;24.92;100.00
10060;BME280;5069;49.306;8.636;2023-08-20T01:01:51;100762.22;;;24.96;100.00
10060;BME280;5069;49.306;8.636;2023-08-20T01:04:52;100757.03;;;25.04;100.00
10060;BME280;5069;49.306;8.636;2023-08-20T01:11:08;100759.88;;;25.13;100.00
10060;BME280;5069;49.306;8.636;2023-08-20T01:14:15;100763.00;;;25.08;100.00
10060;BME280;5069;49.306;8.636;2023-08-20T01:17:17;100752.88;;;25.00;100.00
10060;BME280;5069;49.306;8.636;2023-08-20T01:20:22;100764.25;;;25.04;100.00
10060;BME280;5069;49.306;8.636;2023-08-20T01:23:57;100757.72;;;25.06;99.55
10060;BME280;5069;49.306;8.636;2023-08-20T01:30:44;100757.56;;;24.98;99.51
10060;BME280;5069;49.306;8.636;2023-08-20T01:33:46;100762.28;;;24.85;100.00
10060;BME280;5069;49.306;8.636;2023-08-20T01:36:49;100769.19;;;24.78;100.00
10060;BME280;5069;49.306;8.636;2023-08-20T01:39:50;100775.41;;;24.69;100.00
10060;BME280;5069;49.306;8.636;2023-08-20T01:42:52;100761.34;;;24.65;100.00
10060;BME280;5069;49.306;8.636;2023-08-20T01:45:54;100763.03;;;24.66;100.00
10060;BME280;5069;49.306;8.636;2023-08-20T01:48:55;100755.53;;;24.70;100.00
10060;BME280;5069;49.306;8.636;2023-08-20T01:51:57;100753.69;;;24.70;100.00
10060;BME280;5069;49.306;8.636;2023-08-20T01:54:58;100752.56;;;24.73;100.00
10060;BME280;5069;49.306;8.636;2023-08-20T01:58:00;100747.78;;;24.77;100.00
10060;BME280;5069;49.306;8.636;2023-08-20T02:01:02;100742.38;;;24.77;100.00
10060;BME280;5069;49.306;8.636;2023-08-20T02:04:05;100742.50;;;24.75;100.00
10060;BME280;5069;49.306;8.636;2023-08-20T02:07:06;100742.50;;;24.75;100.00
10060;BME280;5069;49.306;8.636;2023-08-20T02:10:08;100744.47;;;24.73;100.00
10060;BME280;5069;49.306;8.636;2023-08-20T02:13:10;100737.19;;;24.64;100.00
10060;BME280;5069;49.306;8.636;2023-08-20T02:16:12;100743.84;;;24.60;100.00
10060;BME280;5069;49.306;8.636;2023-08-20T02:19:13;100743.94;;;24.49;100.00
10060;BME280;5069;49.306;8.636;2023-08-20T02:22:15;100750.81;;;24.42;100.00
10060;BME280;5069;49.306;8.636;2023-08-20T02:25:17;100747.41;;;24.40;100.00
10060;BME280;5069;49.306;8.636;2023-08-20T02:28:18;100746.53;;;24.39;100.00
10060;BME280;5069;49.306;8.636;2023-08-20T02:31:20;100739.44;;;24.38;100.00
10060;BME280;5069;49.306;8.636;2023-08-20T02:34:22;100742.28;;;24.37;100.00
10060;BME280;5069;49.306;8.636;2023-08-20T02:37:23;100738.00;;;24.34;100.00
10060;BME280;5069;49.306;8.636;2023-08-20T02:40:25;100752.09;;;24.26;100.00
10060;BME280;5069;49.306;8.636;2023-08-20T02:43:26;100752.06;;;24.06;100.00
10060;BME280;5069;49.306;8.636;2023-08-20T02:46:28;100752.69;;;23.98;100.00
10060;BME280;5069;49.306;8.636;2023-08-20T02:49:31;100747.06;;;24.01;100.00
10060;BME280;5069;49.306;8.636;2023-08-20T02:52:33;100752.34;;;24.03;100.00
10060;BME280;5069;49.306;8.636;2023-08-20T02:55:34;100751.25;;;23.94;100.00
10060;BME280;5069;49.306;8.636;2023-08-20T02:58:36;100751.53;;;23.91;100.00
10060;BME280;5069;49.306;8.636;2023-08-20T03:01:38;100753.53;;;23.78;100.00
10060;BME280;5069;49.306;8.636;2023-08-20T03:04:40;100748.91;;;23.69;100.00
10060;BME280;5069;49.306;8.636;2023-08-20T03:07:41;100753.06;;;23.62;100.00
10060;BME280;5069;49.306;8.636;2023-08-20T03:10:43;100751.00;;;23.54;100.00
10060;BME280;5069;49.306;8.636;2023-08-20T03:13:45;100756.78;;;23.50;100.00
10060;BME280;5069;49.306;8.636;2023-08-20T03:16:47;100761.28;;;23.49;100.00
10060;BME280;5069;49.306;8.636;2023-08-20T03:20:00;100764.34;;;23.44;100.00
10060;BME280;5069;49.306;8.636;2023-08-20T03:23:02;100760.69;;;23.34;100.00
10060;BME280;5069;49.306;8.636;2023-08-20T03:26:03;100770.22;;;23.27;100.00
10060;BME280;5069;49.306;8.636;2023-08-20T03:29:05;100766.06;;;23.23;100.00
10060;BME280;5069;49.306;8.636;2023-08-20T03:32:06;100764.00;;;23.16;100.00
10060;BME280;5069;49.306;8.636;2023-08-20T03:35:08;100763.13;;;23.15;100.00
10060;BME280;5069;49.306;8.636;2023-08-20T03:38:11;100765.72;;;23.17;100.00
10060;BME280;5069;49.306;8.636;2023-08-20T03:41:13;100760.06;;;23.20;100.00
10060;BME280;5069;49.306;8.636;2023-08-20T03:44:14;100759.47;;;23.16;100.00
10060;BME280;5069;49.306;8.636;2023-08-20T03:47:16;100758.72;;;23.14;100.00
10060;BME280;5069;49.306;8.636;2023-08-20T03:50:21;100761.78;;;23.21;100.00
10060;BME280;5069;49.306;8.636;2023-08-20T03:53:22;100760.44;;;23.26;100.00
10060;BME280;5069;49.306;8.636;2023-08-20T03:56:24;100767.53;;;23.27;100.00
10060;BME280;5069;49.306;8.636;2023-08-20T03:59:26;100766.94;;;23.24;100.00
10060;BME280;5069;49.306;8.636;2023-08-20T04:02:27;100769.47;;;23.14;100.00
10060;BME280;5069;49.306;8.636;2023-08-20T04:05:36;100772.28;;;23.13;100.00
10060;BME280;5069;49.306;8.636;2023-08-20T04:08:37;100773.63;;;23.18;100.00
10060;BME280;5069;49.306;8.636;2023-08-20T04:11:39;100777.69;;;23.24;100.00
10060;BME280;5069;49.306;8.636;2023-08-20T04:14:40;100781.97;;;23.26;100.00
10060;BME280;5069;49.306;8.636;2023-08-20T04:17:42;100779.88;;;23.19;100.00
10060;BME280;5069;49.306;8.636;2023-08-20T04:20:43;100787.59;;;23.12;100.00
10060;BME280;5069;49.306;8.636;2023-08-20T04:23:45;100776.69;;;23.02;100.00
10060;BME280;5069;49.306;8.636;2023-08-20T04:26:46;100778.53;;;23.02;100.00
10060;BME280;5069;49.306;8.636;2023-08-20T04:29:52;100787.59;;;23.01;100.00
10060;BME280;5069;49.306;8.636;2023-08-20T04:32:54;100775.13;;;23.00;100.00
10060;BME280;5069;49.306;8.636;2023-08-20T04:35:56;100772.28;;;23.01;100.00
10060;BME280;5069;49.306;8.636;2023-08-20T04:38:57;100763.88;;;23.06;100.00
10060;BME280;5069;49.306;8.636;2023-08-20T04:41:59;100777.31;;;22.95;100.00
10060;BME280;5069;49.306;8.636;2023-08-20T04:45:01;100773.13;;;22.80;100.00
10060;BME280;5069;49.306;8.636;2023-08-20T04:48:04;100782.88;;;22.70;100.00
10060;BME280;5069;49.306;8.636;2023-08-20T04:51:06;100791.50;;;22.62;100.00
10060;BME280;5069;49.306;8.636;2023-08-20T04:54:08;100797.75;;;22.62;100.00
10060;BME280;5069;49.306;8.636;2023-08-20T04:57:10;100793.06;;;22.77;100.00
10060;BME280;5069;49.306;8.636;2023-08-20T05:00:13;100798.19;;;22.91;100.00
10060;BME280;5069;49.306;8.636;2023-08-20T05:03:19;100797.13;;;22.94;100.00
10060;BME280;5069;49.306;8.636;2023-08-20T05:06:21;100802.13;;;22.87;100.00
10060;BME280;5069;49.306;8.636;2023-08-20T05:09:22;100806.63;;;22.87;100.00
10060;BME280;5069;49.306;8.636;2023-08-20T05:12:24;100818.38;;;22.97;100.00
10060;BME280;5069;49.306;8.636;2023-08-20T05:15:25;100820.47;;;23.04;100.00
10060;BME280;5069;49.306;8.636;2023-08-20T05:18:27;100818.00;;;23.13;100.00
10060;BME280;5069;49.306;8.636;2023-08-20T05:21:29;100814.72;;;23.09;100.00
10060;BME280;5069;49.306;8.636;2023-08-20T05:24:31;100820.09;;;23.20;100.00
10060;BME280;5069;49.306;8.636;2023-08-20T05:27:32;100821.34;;;23.27;100.00
10060;BME280;5069;49.306;8.636;2023-08-20T05:30:38;100822.06;;;23.40;100.00
10060;BME280;5069;49.306;8.636;2023-08-20T05:33:39;100822.56;;;23.45;100.00
10060;BME280;5069;49.306;8.636;2023-08-20T05:36:41;100827.59;;;23.50;100.00
10060;BME280;5069;49.306;8.636;2023-08-20T05:39:44;100828.34;;;23.52;100.00
10060;BME280;5069;49.306;8.636;2023-08-20T05:42:47;100835.41;;;23.53;100.00
10060;BME280;5069;49.306;8.636;2023-08-20T05:45:52;100836.97;;;23.44;100.00
10060;BME280;5069;49.306;8.636;2023-08-20T05:48:56;100832.38;;;23.46;100.00
10060;BME280;5069;49.306;8.636;2023-08-20T05:51:58;100842.03;;;23.49;100.00
10060;BME280;5069;49.306;8.636;2023-08-20T05:55:02;100842.38;;;23.56;100.00
10060;BME280;5069;49.306;8.636;2023-08-20T05:58:03;100844.59;;;23.51;100.00
10060;BME280;5069;49.306;8.636;2023-08-20T06:01:07;100844.19;;;23.33;100.00
10060;BME280;5069;49.306;8.636;2023-08-20T06:04:08;100850.19;;;23.36;100.00
10060;BME280;5069;49.306;8.636;2023-08-20T06:07:10;100847.47;;;23.36;100.00
10060;BME280;5069;49.306;8.636;2023-08-20T06:10:12;100855.34;;;23.28;100.00
10060;BME280;5069;49.306;8.636;2023-08-20T06:13:13;100858.72;;;23.30;100.00
10060;BME280;5069;49.306;8.636;2023-08-20T06:16:15;100848.72;;;23.32;100.00
10060;BME280;5069;49.306;8.636;2023-08-20T06:19:16;100845.66;;;23.37;100.00
10060;BME280;5069;49.306;8.636;2023-08-20T06:22:18;100846.41;;;23.39;100.00
10060;BME280;5069;49.306;8.636;2023-08-20T06:25:20;100856.59;;;23.46;100.00
10060;BME280;5069;49.306;8.636;2023-08-20T06:28:21;100863.66;;;23.59;100.00
10060;BME280;5069;49.306;8.636;2023-08-20T06:31:23;100860.97;;;23.70;100.00
10060;BME280;5069;49.306;8.636;2023-08-20T06:34:24;100861.59;;;23.73;100.00
10060;BME280;5069;49.306;8.636;2023-08-20T06:37:26;100857.75;;;23.76;100.00
10060;BME280;5069;49.306;8.636;2023-08-20T06:40:27;100860.34;;;23.66;100.00
10060;BME280;5069;49.306;8.636;2023-08-20T06:43:29;100866.34;;;23.70;100.00
10060;BME280;5069;49.306;8.636;2023-08-20T06:46:30;100863.91;;;23.78;100.00
10060;BME280;5069;49.306;8.636;2023-08-20T06:49:32;100866.22;;;23.82;100.00
10060;BME280;5069;49.306;8.636;2023-08-20T06:52:33;100880.03;;;23.89;100.00
10060;BME280;5069;49.306;8.636;2023-08-20T06:55:35;100874.75;;;23.87;100.00
10060;BME280;5069;49.306;8.636;2023-08-20T06:58:39;100878.28;;;23.99;100.00
10060;BME280;5069;49.306;8.636;2023-08-20T07:01:41;100876.78;;;24.17;100.00
10060;BME280;5069;49.306;8.636;2023-08-20T07:04:42;100869.56;;;24.29;100.00
10060;BME280;5069;49.306;8.636;2023-08-20T07:07:45;100877.75;;;24.27;100.00
10060;BME280;5069;49.306;8.636;2023-08-20T07:10:46;100874.03;;;24.40;100.00
10060;BME280;5069;49.306;8.636;2023-08-20T07:13:48;100876.97;;;24.48;100.00
10060;BME280;5069;49.306;8.636;2023-08-20T07:16:49;100876.56;;;24.52;100.00
10060;BME280;5069;49.306;8.636;2023-08-20T07:19:51;100876.19;;;24.57;100.00
10060;BME280;5069;49.306;8.636;2023-08-20T07:22:52;100878.63;;;24.60;100.00
10060;BME280;5069;49.306;8.636;2023-08-20T07:26:08;100872.28;;;24.50;100.00
10060;BME280;5069;49.306;8.636;2023-08-20T07:29:10;100871.53;;;24.59;100.00
10060;BME280;5069;49.306;8.636;2023-08-20T07:32:11;100875.38;;;24.77;100.00
10060;BME280;5069;49.306;8.636;2023-08-20T07:35:13;100875.59;;;25.06;100.00
10060;BME280;5069;49.306;8.636;2023-08-20T07:38:15;100889.00;;;25.17;100.00
10060;BME280;5069;49.306;8.636;2023-08-20T07:41:16;100890.16;;;25.45;100.00
10060;BME280;5069;49.306;8.636;2023-08-20T07:44:18;100887.38;;;25.56;100.00
10060;BME280;5069;49.306;8.636;2023-08-20T07:47:19;100893.22;;;25.61;100.00
10060;BME280;5069;49.306;8.636;2023-08-20T07:50:21;100888.47;;;25.74;100.00
10060;BME280;5069;49.306;8.636;2023-08-20T07:53:22;100889.66;;;25.91;100.00
10060;BME280;5069;49.306;8.636;2023-08-20T07:56:24;100889.78;;;25.89;100.00
10060;BME280;5069;49.306;8.636;2023-08-20T07:59:26;100895.38;;;25.67;100.00
10060;BME280;5069;49.306;8.636;2023-08-20T08:02:27;100894.41;;;25.68;100.00
10060;BME280;5069;49.306;8.636;2023-08-20T08:05:29;100895.00;;;25.81;100.00
10060;BME280;5069;49.306;8.636;2023-08-20T08:08:30;100895.50;;;26.06;100.00
10060;BME280;5069;49.306;8.636;2023-08-20T08:11:32;100895.16;;;26.29;100.00
10060;BME280;5069;49.306;8.636;2023-08-20T08:14:33;100895.94;;;26.20;100.00
10060;BME280;5069;49.306;8.636;2023-08-20T08:17:35;100896.56;;;26.43;100.00
10060;BME280;5069;49.306;8.636;2023-08-20T08:20:37;100897.47;;;26.82;100.00
10060;BME280;5069;49.306;8.636;2023-08-20T08:23:38;100904.03;;;26.99;98.02
10060;BME280;5069;49.306;8.636;2023-08-20T08:26:40;100908.84;;;26.86;98.71
10060;BME280;5069;49.306;8.636;2023-08-20T08:29:42;100906.44;;;26.83;100.00
10060;BME280;5069;49.306;8.636;2023-08-20T08:32:45;100904.88;;;26.90;99.25
10060;BME280;5069;49.306;8.636;2023-08-20T08:35:47;100913.41;;;27.04;98.50
10060;BME280;5069;49.306;8.636;2023-08-20T08:38:48;100909.16;;;26.92;98.76
10060;BME280;5069;49.306;8.636;2023-08-20T08:41:51;100908.84;;;26.95;99.11
10060;BME280;5069;49.306;8.636;2023-08-20T08:44:55;100903.44;;;26.95;99.18
10060;BME280;5069;49.306;8.636;2023-08-20T08:47:58;100908.56;;;27.08;97.39
10060;BME280;5069;49.306;8.636;2023-08-20T08:51:00;100900.84;;;27.13;96.25
10060;BME280;5069;49.306;8.636;2023-08-20T08:54:02;100908.56;;;26.98;98.33
10060;BME280;5069;49.306;8.636;2023-08-20T08:57:04;100914.53;;;27.02;98.14
10060;BME280;5069;49.306;8.636;2023-08-20T09:00:06;100914.81;;;27.08;97.70
10060;BME280;5069;49.306;8.636;2023-08-20T09:03:08;100907.97;;;27.14;96.32
10060;BME280;5069;49.306;8.636;2023-08-20T09:06:10;100908.53;;;27.27;95.19
10060;BME280;5069;49.306;8.636;2023-08-20T09:09:12;100901.75;;;27.41;94.35
10060;BME280;5069;49.306;8.636;2023-08-20T09:12:17;100910.03;;;27.86;94.10
10060;BME280;5069;49.306;8.636;2023-08-20T09:15:19;100919.16;;;28.12;88.95
10060;BME280;5069;49.306;8.636;2023-08-20T09:18:20;100913.97;;;28.01;89.33
10060;BME280;5069;49.306;8.636;2023-08-20T09:21:27;100917.28;;;28.22;90.13
10060;BME280;5069;49.306;8.636;2023-08-20T09:24:38;100906.69;;;28.29;86.39
10060;BME280;5069;49.306;8.636;2023-08-20T09:27:40;100909.84;;;28.24;87.51
10060;BME280;5069;49.306;8.636;2023-08-20T09:30:55;100918.94;;;28.51;86.22
10060;BME280;5069;49.306;8.636;2023-08-20T09:33:56;100910.28;;;28.65;84.06
10060;BME280;5069;49.306;8.636;2023-08-20T09:37:00;100909.69;;;29.14;79.05
10060;BME280;5069;49.306;8.636;2023-08-20T09:40:02;100901.97;;;28.84;80.47
10060;BME280;5069;49.306;8.636;2023-08-20T09:43:05;100913.16;;;28.81;79.28
10060;BME280;5069;49.306;8.636;2023-08-20T09:46:10;100915.78;;;28.73;80.84
10060;BME280;5069;49.306;8.636;2023-08-20T09:49:15;100914.53;;;28.85;78.01
10060;BME280;5069;49.306;8.636;2023-08-20T09:52:36;100912.97;;;29.00;78.11
10060;BME280;5069;49.306;8.636;2023-08-20T09:55:41;100910.84;;;29.12;76.31
10060;BME280;5069;49.306;8.636;2023-08-20T09:58:43;100911.25;;;29.43;76.65
10060;BME280;5069;49.306;8.636;2023-08-20T10:01:46;100909.91;;;29.47;71.69
10060;BME280;5069;49.306;8.636;2023-08-20T10:04:50;100904.75;;;29.62;73.54
10060;BME280;5069;49.306;8.636;2023-08-20T10:07:52;100900.75;;;29.82;73.18
10060;BME280;5069;49.306;8.636;2023-08-20T10:10:54;100903.38;;;29.91;72.05
10060;BME280;5069;49.306;8.636;2023-08-20T10:13:55;100900.16;;;29.96;71.09
10060;BME280;5069;49.306;8.636;2023-08-20T10:16:57;100893.25;;;30.02;70.80
10060;BME280;5069;49.306;8.636;2023-08-20T10:20:00;100892.03;;;30.04;69.57
10060;BME280;5069;49.306;8.636;2023-08-20T10:23:03;100892.44;;;29.83;68.99
10060;BME280;5069;49.306;8.636;2023-08-20T10:26:09;100885.03;;;29.93;70.15
10060;BME280;5069;49.306;8.636;2023-08-20T10:29:37;100882.91;;;30.21;69.81
10060;BME280;5069;49.306;8.636;2023-08-20T10:32:49;100875.00;;;30.52;67.89
10060;BME280;5069;49.306;8.636;2023-08-20T10:35:52;100878.41;;;30.78;66.35
10060;BME280;5069;49.306;8.636;2023-08-20T10:38:55;100873.97;;;30.53;65.14
10060;BME280;5069;49.306;8.636;2023-08-20T10:45:21;100876.00;;;30.59;66.48
10060;BME280;5069;49.306;8.636;2023-08-20T10:48:24;100875.03;;;30.68;66.23
10060;BME280;5069;49.306;8.636;2023-08-20T10:51:36;100877.03;;;30.66;64.62
10060;BME280;5069;49.306;8.636;2023-08-20T10:54:38;100871.94;;;30.79;64.37
10060;BME280;5069;49.306;8.636;2023-08-20T10:57:39;100870.25;;;30.78;62.27
10060;BME280;5069;49.306;8.636;2023-08-20T11:00:41;100868.56;;;30.86;65.51
10060;BME280;5069;49.306;8.636;2023-08-20T11:03:44;100872.28;;;30.93;60.45
10060;BME280;5069;49.306;8.636;2023-08-20T11:06:46;100873.97;;;31.02;60.57
10060;BME280;5069;49.306;8.636;2023-08-20T11:09:50;100866.00;;;31.08;59.36
10060;BME280;5069;49.306;8.636;2023-08-20T11:12:52;100871.06;;;31.28;60.29
10060;BME280;5069;49.306;8.636;2023-08-20T11:15:53;100870.88;;;31.37;58.69
10060;BME280;5069;49.306;8.636;2023-08-20T11:18:56;100872.88;;;31.51;60.32
10060;BME280;5069;49.306;8.636;2023-08-20T11:21:58;100865.38;;;31.45;56.92
10060;BME280;5069;49.306;8.636;2023-08-20T11:25:00;100866.41;;;31.61;55.12
10060;BME280;5069;49.306;8.636;2023-08-20T11:28:01;100862.16;;;31.58;54.82
10060;BME280;5069;49.306;8.636;2023-08-20T11:31:03;100865.22;;;31.47;55.96
10060;BME280;5069;49.306;8.636;2023-08-20T11:34:05;100866.03;;;31.64;55.07
10060;BME280;5069;49.306;8.636;2023-08-20T11:37:07;100866.34;;;31.77;56.07
10060;BME280;5069;49.306;8.636;2023-08-20T11:40:09;100858.09;;;31.85;54.26
10060;BME280;5069;49.306;8.636;2023-08-20T11:43:10;100862.00;;;31.90;54.93
10060;BME280;5069;49.306;8.636;2023-08-20T11:46:19;100857.13;;;32.09;54.62
10060;BME280;5069;49.306;8.636;2023-08-20T11:49:27;100865.44;;;32.23;54.20
10060;BME280;5069;49.306;8.636;2023-08-20T11:52:31;100867.19;;;32.39;53.35
10060;BME280;5069;49.306;8.636;2023-08-20T11:55:33;100855.56;;;32.45;52.16
10060;BME280;5069;49.306;8.636;2023-08-20T11:58:35;100853.97;;;32.51;52.85
10060;BME280;5069;49.306;8.636;2023-08-20T12:01:36;100846.66;;;32.28;48.88
10060;BME280;5069;49.306;8.636;2023-08-20T12:04:38;100852.16;;;32.20;50.89
10060;BME280;5069;49.306;8.636;2023-08-20T12:07:39;100851.69;;;32.39;50.68
10060;BME280;5069;49.306;8.636;2023-08-20T12:10:42;100843.13;;;32.42;50.64
10060;BME280;5069;49.306;8.636;2023-08-20T12:13:44;100839.34;;;32.44;49.44
10060;BME280;5069;49.306;8.636;2023-08-20T12:16:45;100830.31;;;32.43;49.76
10060;BME280;5069;49.306;8.636;2023-08-20T12:19:47;100826.56;;;32.67;48.52
10060;BME280;5069;49.306;8.636;2023-08-20T12:22:49;100823.78;;;32.75;45.89
10060;BME280;5069;49.306;8.636;2023-08-20T12:25:51;100817.81;;;32.49;47.92
10060;BME280;5069;49.306;8.636;2023-08-20T12:28:53;100812.88;;;32.52;48.95
10060;BME280;5069;49.306;8.636;2023-08-20T12:31:54;100818.00;;;32.70;49.83
10060;BME280;5069;49.306;8.636;2023-08-20T12:34:55;100813.16;;;32.80;50.22
10060;BME280;5069;49.306;8.636;2023-08-20T12:37:57;100816.81;;;32.87;49.32
10060;BME280;5069;49.306;8.636;2023-08-20T12:41:00;100811.56;;;33.00;47.03
10060;BME280;5069;49.306;8.636;2023-08-20T12:44:02;100812.75;;;33.20;46.60
10060;BME280;5069;49.306;8.636;2023-08-20T12:47:04;100817.19;;;32.84;46.83
10060;BME280;5069;49.306;8.636;2023-08-20T12:50:06;100810.78;;;32.77;46.98
10060;BME280;5069;49.306;8.636;2023-08-20T12:53:08;100811.91;;;32.83;45.02
10060;BME280;5069;49.306;8.636;2023-08-20T12:56:09;100798.19;;;33.05;46.35
10060;BME280;5069;49.306;8.636;2023-08-20T12:59:11;100804.91;;;33.17;47.18
10060;BME280;5069;49.306;8.636;2023-08-20T13:02:13;100796.44;;;33.27;46.58
10060;BME280;5069;49.306;8.636;2023-08-20T13:05:14;100799.63;;;33.45;45.74
10060;BME280;5069;49.306;8.636;2023-08-20T13:08:16;100798.19;;;33.79;44.25
10060;BME280;5069;49.306;8.636;2023-08-20T13:11:19;100788.38;;;33.84;43.72
10060;BME280;5069;49.306;8.636;2023-08-20T13:14:21;100786.75;;;33.90;44.40
10060;BME280;5069;49.306;8.636;2023-08-20T13:17:24;100787.75;;;34.03;44.33
10060;BME280;5069;49.306;8.636;2023-08-20T13:20:26;100786.97;;;33.88;44.03
10060;BME280;5069;49.306;8.636;2023-08-20T13:23:28;100788.56;;;33.83;42.67
10060;BME280;5069;49.306;8.636;2023-08-20T13:26:30;100788.97;;;33.65;43.43
10060;BME280;5069;49.306;8.636;2023-08-20T13:29:31;100783.88;;;33.62;43.32
10060;BME280;5069;49.306;8.636;2023-08-20T13:32:34;100782.63;;;33.79;43.27
10060;BME280;5069;49.306;8.636;2023-08-20T13:35:36;100788.06;;;33.94;44.09
10060;BME280;5069;49.306;8.636;2023-08-20T13:38:38;100786.31;;;34.08;43.11
10060;BME280;5069;49.306;8.636;2023-08-20T13:41:41;100780.81;;;34.22;42.40
10060;BME280;5069;49.306;8.636;2023-08-20T13:44:42;100780.47;;;34.32;42.67
10060;BME280;5069;49.306;8.636;2023-08-20T13:47:44;100780.66;;;34.30;43.10
10060;BME280;5069;49.306;8.636;2023-08-20T13:50:48;100774.31;;;34.09;43.62
10060;BME280;5069;49.306;8.636;2023-08-20T13:53:50;100776.19;;;34.23;43.24
10060;BME280;5069;49.306;8.636;2023-08-20T13:56:51;100777.31;;;34.14;42.80
10060;BME280;5069;49.306;8.636;2023-08-20T13:59:53;100766.19;;;34.36;43.14
10060;BME280;5069;49.306;8.636;2023-08-20T14:02:54;100762.00;;;34.40;42.04
10060;BME280;5069;49.306;8.636;2023-08-20T14:05:56;100770.31;;;34.75;42.11
10060;BME280;5069;49.306;8.636;2023-08-20T14:08:57;100766.34;;;34.77;41.95
10060;BME280;5069;49.306;8.636;2023-08-20T14:11:59;100758.56;;;34.53;41.85
10060;BME280;5069;49.306;8.636;2023-08-20T14:15:00;100762.84;;;34.62;41.96
10060;BME280;5069;49.306;8.636;2023-08-20T14:18:03;100757.06;;;34.51;41.29
10060;BME280;5069;49.306;8.636;2023-08-20T14:21:07;100763.97;;;34.47;40.95
10060;BME280;5069;49.306;8.636;2023-08-20T14:24:09;100762.06;;;34.68;41.18
10060;BME280;5069;49.306;8.636;2023-08-20T14:27:10;100758.19;;;34.84;40.38
10060;BME280;5069;49.306;8.636;2023-08-20T14:30:12;100756.06;;;34.79;40.39
10060;BME280;5069;49.306;8.636;2023-08-20T14:33:14;100756.84;;;34.73;40.41
10060;BME280;5069;49.306;8.636;2023-08-20T14:36:15;100759.75;;;35.00;40.14
10060;BME280;5069;49.306;8.636;2023-08-20T14:39:17;100761.56;;;34.86;39.94
10060;BME280;5069;49.306;8.636;2023-08-20T14:42:18;100747.16;;;34.50;40.23
10060;BME280;5069;49.306;8.636;2023-08-20T14:45:20;100750.75;;;34.08;41.04
10060;BME280;5069;49.306;8.636;2023-08-20T14:48:22;100749.84;;;34.43;39.98
10060;BME280;5069;49.306;8.636;2023-08-20T14:51:24;100745.81;;;34.67;40.98
10060;BME280;5069;49.306;8.636;2023-08-20T14:54:25;100743.00;;;34.32;41.21
10060;BME280;5069;49.306;8.636;2023-08-20T14:57:27;100746.19;;;33.93;42.71
10060;BME280;5069;49.306;8.636;2023-08-20T15:00:41;100747.47;;;33.76;42.61
10060;BME280;5069;49.306;8.636;2023-08-20T15:03:43;100740.31;;;34.18;42.23
10060;BME280;5069;49.306;8.636;2023-08-20T15:06:44;100745.09;;;34.58;41.43
10060;BME280;5069;49.306;8.636;2023-08-20T15:09:46;100745.88;;;34.24;41.69
10060;BME280;5069;49.306;8.636;2023-08-20T15:12:47;100747.94;;;34.43;41.65
10060;BME280;5069;49.306;8.636;2023-08-20T15:15:53;100733.06;;;34.53;41.30
10060;BME280;5069;49.306;8.636;2023-08-20T15:18:56;100740.00;;;34.76;40.78
10060;BME280;5069;49.306;8.636;2023-08-20T15:21:57;100742.94;;;34.75;40.33
10060;BME280;5069;49.306;8.636;2023-08-20T15:24:59;100742.56;;;34.78;40.33
10060;BME280;5069;49.306;8.636;2023-08-20T15:28:00;100735.41;;;34.56;41.53
10060;BME280;5069;49.306;8.636;2023-08-20T15:31:02;100734.47;;;34.70;40.22
10060;BME280;5069;49.306;8.636;2023-08-20T15:34:03;100736.88;;;34.79;40.51
10060;BME280;5069;49.306;8.636;2023-08-20T15:37:06;100729.22;;;35.03;40.91
10060;BME280;5069;49.306;8.636;2023-08-20T15:40:08;100729.16;;;34.90;40.45
10060;BME280;5069;49.306;8.636;2023-08-20T15:43:13;100725.03;;;35.07;39.68
10060;BME280;5069;49.306;8.636;2023-08-20T15:46:15;100732.94;;;34.89;40.77
10060;BME280;5069;49.306;8.636;2023-08-20T15:49:16;100728.06;;;34.56;40.81
10060;BME280;5069;49.306;8.636;2023-08-20T15:52:18;100736.44;;;34.06;42.07
10060;BME280;5069;49.306;8.636;2023-08-20T15:55:19;100745.78;;;33.75;42.58
10060;BME280;5069;49.306;8.636;2023-08-20T15:58:21;100740.31;;;33.96;42.66
10060;BME280;5069;49.306;8.636;2023-08-20T16:01:22;100734.50;;;34.21;41.68
10060;BME280;5069;49.306;8.636;2023-08-20T16:04:26;100739.41;;;34.11;42.99
10060;BME280;5069;49.306;8.636;2023-08-20T16:07:28;100725.50;;;34.06;42.24
10060;BME280;5069;49.306;8.636;2023-08-20T16:10:29;100726.19;;;33.93;42.29